sensor_id;sensor_type;location;lat;lon;timestamp;temperature;humidity
62154;DHT22;48140;45.486;9.226;2024-01-30T00:02:11;3.30;99.90
62154;DHT22;48140;45.486;9.226;2024-01-30T00:04:36;3.30;99.90
62154;DHT22;48140;45.486;9.226;2024-01-30T00:07:02;3.20;99.90
62154;DHT22;48140;45.486;9.226;2024-01-30T00:09:28;3.30;99.90
62154;DHT22;48140;45.486;9.226;2024-01-30T00:11:54;3.20;99.90
62154;DHT22;48140;45.486;9.226;2024-01-30T00:14:19;3.20;99.90
62154;DHT22;48140;45.486;9.226;2024-01-30T00:16:45;3.20;99.90
62154;DHT22;48140;45.486;9.226;2024-01-30T00:19:10;3.30;99.90
62154;DHT22;48140;45.486;9.226;2024-01-30T00:21:36;3.30;99.90
62154;DHT22;48140;45.486;9.226;2024-01-30T00:24:01;3.30;99.90
62154;DHT22;48140;45.486;9.226;2024-01-30T00:26:27;3.30;99.90
62154;DHT22;48140;45.486;9.226;2024-01-30T00:28:52;3.50;99.90
62154;DHT22;48140;45.486;9.226;2024-01-30T00:31:18;3.20;99.90
62154;DHT22;48140;45.486;9.226;2024-01-30T00:33:43;3.30;99.90
62154;DHT22;48140;45.486;9.226;2024-01-30T00:36:09;3.80;99.90
62154;DHT22;48140;45.486;9.226;2024-01-30T00:38:35;3.40;99.90
62154;DHT22;48140;45.486;9.226;2024-01-30T00:41:00;3.40;99.90
62154;DHT22;48140;45.486;9.226;2024-01-30T00:43:27;3.40;99.90
62154;DHT22;48140;45.486;9.226;2024-01-30T00:45:53;3.80;99.90
62154;DHT22;48140;45.486;9.226;2024-01-30T00:48:18;3.30;99.90
62154;DHT22;48140;45.486;9.226;2024-01-30T00:50:44;3.30;99.90
62154;DHT22;48140;45.486;9.226;2024-01-30T00:53:09;3.20;99.90
62154;DHT22;48140;45.486;9.226;2024-01-30T00:55:35;3.20;99.90
62154;DHT22;48140;45.486;9.226;2024-01-30T00:58:00;3.20;99.90
62154;DHT22;48140;45.486;9.226;2024-01-30T01:00:26;3.20;99.90
62154;DHT22;48140;45.486;9.226;2024-01-30T01:02:57;3.30;99.90
62154;DHT22;48140;45.486;9.226;2024-01-30T01:05:22;3.30;99.90
62154;DHT22;48140;45.486;9.226;2024-01-30T01:07:48;3.30;99.90
62154;DHT22;48140;45.486;9.226;2024-01-30T01:10:14;3.30;99.90
62154;DHT22;48140;45.486;9.226;2024-01-30T01:12:41;3.20;99.90
62154;DHT22;48140;45.486;9.226;2024-01-30T01:15:06;3.20;99.90
62154;DHT22;48140;45.486;9.226;2024-01-30T01:17:35;3.10;99.90
62154;DHT22;48140;45.486;9.226;2024-01-30T01:20:01;3.10;99.90
62154;DHT22;48140;45.486;9.226;2024-01-30T01:22:26;3.10;99.90
62154;DHT22;48140;45.486;9.226;2024-01-30T01:24:52;3.10;99.90
62154;DHT22;48140;45.486;9.226;2024-01-30T01:27:18;3.10;99.90
62154;DHT22;48140;45.486;9.226;2024-01-30T01:29:44;3.00;99.90
62154;DHT22;48140;45.486;9.226;2024-01-30T01:32:10;3.10;99.90
62154;DHT22;48140;45.486;9.226;2024-01-30T01:34:36;3.00;99.90
62154;DHT22;48140;45.486;9.226;2024-01-30T01:37:02;3.10;99.90
62154;DHT22;48140;45.486;9.226;2024-01-30T01:39:27;3.10;99.90
62154;DHT22;48140;45.486;9.226;2024-01-30T01:41:53;3.20;99.90
62154;DHT22;48140;45.486;9.226;2024-01-30T01:44:18;3.50;99.90
62154;DHT22;48140;45.486;9.226;2024-01-30T01:46:44;3.10;99.90
62154;DHT22;48140;45.486;9.226;2024-01-30T01:49:10;3.20;99.90
62154;DHT22;48140;45.486;9.226;2024-01-30T01:51:36;3.10;99.90
62154;DHT22;48140;45.486;9.226;2024-01-30T01:54:03;3.20;99.90
62154;DHT22;48140;45.486;9.226;2024-01-30T01:56:28;3.10;99.90
62154;DHT22;48140;45.486;9.226;2024-01-30T01:58:54;3.10;99.90
62154;DHT22;48140;45.486;9.226;2024-01-30T02:01:20;3.10;99.90
62154;DHT22;48140;45.486;9.226;2024-01-30T02:03:46;3.00;99.90
62154;DHT22;48140;45.486;9.226;2024-01-30T02:06:12;3.10;99.90
62154;DHT22;48140;45.486;9.226;2024-01-30T02:08:38;3.00;99.90
62154;DHT22;48140;45.486;9.226;2024-01-30T02:11:03;3.60;99.90
62154;DHT22;48140;45.486;9.226;2024-01-30T02:13:29;3.00;99.90
62154;DHT22;48140;45.486;9.226;2024-01-30T02:15:54;2.90;99.90
62154;DHT22;48140;45.486;9.226;2024-01-30T02:18:20;2.90;99.90
62154;DHT22;48140;45.486;9.226;2024-01-30T02:20:49;2.70;99.90
62154;DHT22;48140;45.486;9.226;2024-01-30T02:23:15;2.90;99.90
62154;DHT22;48140;45.486;9.226;2024-01-30T02:25:42;2.80;99.90
62154;DHT22;48140;45.486;9.226;2024-01-30T02:28:13;2.70;99.90
62154;DHT22;48140;45.486;9.226;2024-01-30T02:30:39;2.70;99.90
62154;DHT22;48140;45.486;9.226;2024-01-30T02:33:05;2.70;99.90
62154;DHT22;48140;45.486;9.226;2024-01-30T02:35:30;2.80;99.90
62154;DHT22;48140;45.486;9.226;2024-01-30T02:37:56;2.80;99.90
62154;DHT22;48140;45.486;9.226;2024-01-30T02:40:21;2.80;99.90
62154;DHT22;48140;45.486;9.226;2024-01-30T02:42:47;3.30;99.90
62154;DHT22;48140;45.486;9.226;2024-01-30T02:45:12;2.80;99.90
62154;DHT22;48140;45.486;9.226;2024-01-30T02:47:38;2.90;99.90
62154;DHT22;48140;45.486;9.226;2024-01-30T02:50:04;2.80;99.90
62154;DHT22;48140;45.486;9.226;2024-01-30T02:52:30;2.90;99.90
62154;DHT22;48140;45.486;9.226;2024-01-30T02:54:55;2.80;99.90
62154;DHT22;48140;45.486;9.226;2024-01-30T02:57:21;2.90;99.90
62154;DHT22;48140;45.486;9.226;2024-01-30T02:59:46;2.90;99.90
62154;DHT22;48140;45.486;9.226;2024-01-30T03:02:11;2.90;99.90
62154;DHT22;48140;45.486;9.226;2024-01-30T03:04:37;2.90;99.90
62154;DHT22;48140;45.486;9.226;2024-01-30T03:07:03;2.80;99.90
62154;DHT22;48140;45.486;9.226;2024-01-30T03:09:28;2.80;99.90
62154;DHT22;48140;45.486;9.226;2024-01-30T03:11:54;2.80;99.90
62154;DHT22;48140;45.486;9.226;2024-01-30T03:14:19;2.70;99.90
62154;DHT22;48140;45.486;9.226;2024-01-30T03:16:45;2.70;99.90
62154;DHT22;48140;45.486;9.226;2024-01-30T03:19:11;2.70;99.90
62154;DHT22;48140;45.486;9.226;2024-01-30T03:21:36;2.60;99.90
62154;DHT22;48140;45.486;9.226;2024-01-30T03:24:02;2.60;99.90
62154;DHT22;48140;45.486;9.226;2024-01-30T03:26:27;2.60;99.90
62154;DHT22;48140;45.486;9.226;2024-01-30T03:28:53;2.70;99.90
62154;DHT22;48140;45.486;9.226;2024-01-30T03:31:18;2.60;99.90
62154;DHT22;48140;45.486;9.226;2024-01-30T03:33:44;2.60;99.90
62154;DHT22;48140;45.486;9.226;2024-01-30T03:36:10;2.60;99.90
62154;DHT22;48140;45.486;9.226;2024-01-30T03:38:36;2.60;99.90
62154;DHT22;48140;45.486;9.226;2024-01-30T03:41:01;2.60;99.90
62154;DHT22;48140;45.486;9.226;2024-01-30T03:43:27;2.60;99.90
62154;DHT22;48140;45.486;9.226;2024-01-30T03:45:52;2.60;99.90
62154;DHT22;48140;45.486;9.226;2024-01-30T03:48:18;2.60;99.90
62154;DHT22;48140;45.486;9.226;2024-01-30T03:50:44;1.70;99.90
62154;DHT22;48140;45.486;9.226;2024-01-30T03:53:09;2.70;99.90
62154;DHT22;48140;45.486;9.226;2024-01-30T03:55:35;2.70;99.90
62154;DHT22;48140;45.486;9.226;2024-01-30T03:58:01;2.70;99.90
62154;DHT22;48140;45.486;9.226;2024-01-30T04:00:26;2.80;99.90
62154;DHT22;48140;45.486;9.226;2024-01-30T04:02:52;2.80;99.90
62154;DHT22;48140;45.486;9.226;2024-01-30T04:05:17;2.70;99.90
62154;DHT22;48140;45.486;9.226;2024-01-30T04:07:43;2.70;99.90
62154;DHT22;48140;45.486;9.226;2024-01-30T04:10:09;2.70;99.90
62154;DHT22;48140;45.486;9.226;2024-01-30T04:12:35;2.60;99.90
62154;DHT22;48140;45.486;9.226;2024-01-30T04:15:00;2.50;99.90
62154;DHT22;48140;45.486;9.226;2024-01-30T04:17:26;2.50;99.90
62154;DHT22;48140;45.486;9.226;2024-01-30T04:19:51;2.50;99.90
62154;DHT22;48140;45.486;9.226;2024-01-30T04:22:17;2.30;99.90
62154;DHT22;48140;45.486;9.226;2024-01-30T04:24:42;2.20;99.90
62154;DHT22;48140;45.486;9.226;2024-01-30T04:27:08;2.20;99.90
62154;DHT22;48140;45.486;9.226;2024-01-30T04:29:33;2.10;99.90
62154;DHT22;48140;45.486;9.226;2024-01-30T04:31:59;2.00;99.90
62154;DHT22;48140;45.486;9.226;2024-01-30T04:34:24;1.80;99.90
62154;DHT22;48140;45.486;9.226;2024-01-30T04:36:50;1.80;99.90
62154;DHT22;48140;45.486;9.226;2024-01-30T04:39:15;1.80;99.90
62154;DHT22;48140;45.486;9.226;2024-01-30T04:41:41;1.70;99.90
62154;DHT22;48140;45.486;9.226;2024-01-30T04:44:06;1.70;99.90
62154;DHT22;48140;45.486;9.226;2024-01-30T04:46:32;3.10;99.90
62154;DHT22;48140;45.486;9.226;2024-01-30T04:48:59;1.70;99.90
62154;DHT22;48140;45.486;9.226;2024-01-30T04:51:25;1.70;99.90
62154;DHT22;48140;45.486;9.226;2024-01-30T04:53:50;1.70;99.90
62154;DHT22;48140;45.486;9.226;2024-01-30T04:56:16;1.80;99.90
62154;DHT22;48140;45.486;9.226;2024-01-30T04:58:42;1.80;99.90
62154;DHT22;48140;45.486;9.226;2024-01-30T05:01:07;1.90;99.90
62154;DHT22;48140;45.486;9.226;2024-01-30T05:03:33;2.00;99.90
62154;DHT22;48140;45.486;9.226;2024-01-30T05:06:00;2.00;99.90
62154;DHT22;48140;45.486;9.226;2024-01-30T05:08:25;2.00;99.90
62154;DHT22;48140;45.486;9.226;2024-01-30T05:10:51;2.10;99.90
62154;DHT22;48140;45.486;9.226;2024-01-30T05:13:16;2.10;99.90
62154;DHT22;48140;45.486;9.226;2024-01-30T05:15:42;2.00;99.90
62154;DHT22;48140;45.486;9.226;2024-01-30T05:18:08;2.00;99.90
62154;DHT22;48140;45.486;9.226;2024-01-30T05:20:33;2.10;99.90
62154;DHT22;48140;45.486;9.226;2024-01-30T05:22:59;2.10;99.90
62154;DHT22;48140;45.486;9.226;2024-01-30T05:25:24;2.20;99.90
62154;DHT22;48140;45.486;9.226;2024-01-30T05:27:50;2.30;99.90
62154;DHT22;48140;45.486;9.226;2024-01-30T05:30:15;2.40;99.90
62154;DHT22;48140;45.486;9.226;2024-01-30T05:32:41;2.40;99.90
62154;DHT22;48140;45.486;9.226;2024-01-30T05:35:06;2.30;99.90
62154;DHT22;48140;45.486;9.226;2024-01-30T05:37:33;2.30;99.90
62154;DHT22;48140;45.486;9.226;2024-01-30T05:39:58;2.40;99.90
62154;DHT22;48140;45.486;9.226;2024-01-30T05:42:24;2.40;99.90
62154;DHT22;48140;45.486;9.226;2024-01-30T05:44:50;2.40;99.90
62154;DHT22;48140;45.486;9.226;2024-01-30T05:47:15;2.60;99.90
62154;DHT22;48140;45.486;9.226;2024-01-30T05:49:41;2.40;99.90
62154;DHT22;48140;45.486;9.226;2024-01-30T05:52:07;2.40;99.90
62154;DHT22;48140;45.486;9.226;2024-01-30T05:54:32;2.40;99.90
62154;DHT22;48140;45.486;9.226;2024-01-30T05:56:58;2.40;99.90
62154;DHT22;48140;45.486;9.226;2024-01-30T05:59:24;2.50;99.90
62154;DHT22;48140;45.486;9.226;2024-01-30T06:01:49;2.50;99.90
62154;DHT22;48140;45.486;9.226;2024-01-30T06:04:15;2.50;99.90
62154;DHT22;48140;45.486;9.226;2024-01-30T06:06:41;2.50;99.90
62154;DHT22;48140;45.486;9.226;2024-01-30T06:09:06;2.40;99.90
62154;DHT22;48140;45.486;9.226;2024-01-30T06:11:34;2.40;99.90
62154;DHT22;48140;45.486;9.226;2024-01-30T06:14:00;2.50;99.90
62154;DHT22;48140;45.486;9.226;2024-01-30T06:16:25;2.50;99.90
62154;DHT22;48140;45.486;9.226;2024-01-30T06:18:55;2.40;99.90
62154;DHT22;48140;45.486;9.226;2024-01-30T06:21:20;2.50;99.90
62154;DHT22;48140;45.486;9.226;2024-01-30T06:23:49;2.60;99.90
62154;DHT22;48140;45.486;9.226;2024-01-30T06:26:18;2.60;99.90
62154;DHT22;48140;45.486;9.226;2024-01-30T06:28:43;2.60;99.90
62154;DHT22;48140;45.486;9.226;2024-01-30T06:31:09;2.60;99.90
62154;DHT22;48140;45.486;9.226;2024-01-30T06:33:35;2.60;99.90
62154;DHT22;48140;45.486;9.226;2024-01-30T06:36:00;2.60;99.90
62154;DHT22;48140;45.486;9.226;2024-01-30T06:38:26;2.60;99.90
62154;DHT22;48140;45.486;9.226;2024-01-30T06:40:51;2.60;99.90
62154;DHT22;48140;45.486;9.226;2024-01-30T06:43:17;2.50;99.90
62154;DHT22;48140;45.486;9.226;2024-01-30T06:45:42;2.50;99.90
62154;DHT22;48140;45.486;9.226;2024-01-30T06:48:08;2.50;99.90
62154;DHT22;48140;45.486;9.226;2024-01-30T06:50:33;2.40;99.90
62154;DHT22;48140;45.486;9.226;2024-01-30T06:52:59;2.30;99.90
62154;DHT22;48140;45.486;9.226;2024-01-30T06:55:28;2.30;99.90
62154;DHT22;48140;45.486;9.226;2024-01-30T06:57:54;2.30;99.90
62154;DHT22;48140;45.486;9.226;2024-01-30T07:00:19;2.20;99.90
62154;DHT22;48140;45.486;9.226;2024-01-30T07:02:45;2.20;99.90
62154;DHT22;48140;45.486;9.226;2024-01-30T07:05:11;2.20;99.90
62154;DHT22;48140;45.486;9.226;2024-01-30T07:07:36;2.30;99.90
62154;DHT22;48140;45.486;9.226;2024-01-30T07:10:02;2.40;99.90
62154;DHT22;48140;45.486;9.226;2024-01-30T07:12:28;2.40;99.90
62154;DHT22;48140;45.486;9.226;2024-01-30T07:14:53;2.40;99.90
62154;DHT22;48140;45.486;9.226;2024-01-30T07:17:20;2.40;99.90
62154;DHT22;48140;45.486;9.226;2024-01-30T07:19:46;2.80;99.90
62154;DHT22;48140;45.486;9.226;2024-01-30T07:22:11;2.40;99.90
62154;DHT22;48140;45.486;9.226;2024-01-30T07:24:41;2.50;99.90
62154;DHT22;48140;45.486;9.226;2024-01-30T07:27:07;2.50;99.90
62154;DHT22;48140;45.486;9.226;2024-01-30T07:29:32;2.60;99.90
62154;DHT22;48140;45.486;9.226;2024-01-30T07:31:58;2.60;99.90
62154;DHT22;48140;45.486;9.226;2024-01-30T07:34:23;2.60;99.90
62154;DHT22;48140;45.486;9.226;2024-01-30T07:36:49;2.50;99.90
62154;DHT22;48140;45.486;9.226;2024-01-30T07:39:14;2.60;99.90
62154;DHT22;48140;45.486;9.226;2024-01-30T07:41:40;2.60;99.90
62154;DHT22;48140;45.486;9.226;2024-01-30T07:44:05;2.80;99.90
62154;DHT22;48140;45.486;9.226;2024-01-30T07:46:31;2.80;99.90
62154;DHT22;48140;45.486;9.226;2024-01-30T07:48:57;2.70;99.90
62154;DHT22;48140;45.486;9.226;2024-01-30T07:51:23;2.90;99.90
62154;DHT22;48140;45.486;9.226;2024-01-30T07:53:52;2.90;99.90
62154;DHT22;48140;45.486;9.226;2024-01-30T07:56:17;2.90;99.90
62154;DHT22;48140;45.486;9.226;2024-01-30T07:58:43;2.90;99.90
62154;DHT22;48140;45.486;9.226;2024-01-30T08:01:08;2.90;99.90
62154;DHT22;48140;45.486;9.226;2024-01-30T08:03:34;3.10;99.90
62154;DHT22;48140;45.486;9.226;2024-01-30T08:05:59;3.30;99.90
62154;DHT22;48140;45.486;9.226;2024-01-30T08:08:25;3.40;99.90
62154;DHT22;48140;45.486;9.226;2024-01-30T08:10:51;3.50;99.90
62154;DHT22;48140;45.486;9.226;2024-01-30T08:13:17;3.40;99.90
62154;DHT22;48140;45.486;9.226;2024-01-30T08:15:42;3.40;99.90
62154;DHT22;48140;45.486;9.226;2024-01-30T08:18:08;3.60;99.90
62154;DHT22;48140;45.486;9.226;2024-01-30T08:20:33;3.80;99.90
62154;DHT22;48140;45.486;9.226;2024-01-30T08:22:59;3.90;99.90
62154;DHT22;48140;45.486;9.226;2024-01-30T08:25:25;4.00;99.90
62154;DHT22;48140;45.486;9.226;2024-01-30T08:27:51;4.10;99.90
62154;DHT22;48140;45.486;9.226;2024-01-30T08:30:17;4.10;99.90
62154;DHT22;48140;45.486;9.226;2024-01-30T08:32:42;4.30;99.90
62154;DHT22;48140;45.486;9.226;2024-01-30T08:35:08;4.40;99.90
62154;DHT22;48140;45.486;9.226;2024-01-30T08:37:34;4.50;99.90
62154;DHT22;48140;45.486;9.226;2024-01-30T08:39:59;4.60;99.90
62154;DHT22;48140;45.486;9.226;2024-01-30T08:42:25;4.80;99.90
62154;DHT22;48140;45.486;9.226;2024-01-30T08:44:51;4.90;99.90
62154;DHT22;48140;45.486;9.226;2024-01-30T08:47:18;4.90;99.90
62154;DHT22;48140;45.486;9.226;2024-01-30T08:49:44;5.00;99.90
62154;DHT22;48140;45.486;9.226;2024-01-30T08:52:10;5.00;99.90
62154;DHT22;48140;45.486;9.226;2024-01-30T08:54:35;5.00;99.90
62154;DHT22;48140;45.486;9.226;2024-01-30T08:57:01;5.00;99.90
62154;DHT22;48140;45.486;9.226;2024-01-30T08:59:27;5.20;99.90
62154;DHT22;48140;45.486;9.226;2024-01-30T09:01:53;5.30;99.90
62154;DHT22;48140;45.486;9.226;2024-01-30T09:04:23;5.40;99.90
62154;DHT22;48140;45.486;9.226;2024-01-30T09:06:49;5.50;99.90
62154;DHT22;48140;45.486;9.226;2024-01-30T09:09:14;5.70;99.90
62154;DHT22;48140;45.486;9.226;2024-01-30T09:11:40;5.80;99.90
62154;DHT22;48140;45.486;9.226;2024-01-30T09:14:05;6.10;99.90
62154;DHT22;48140;45.486;9.226;2024-01-30T09:16:31;6.20;99.90
62154;DHT22;48140;45.486;9.226;2024-01-30T09:18:56;6.50;99.60
62154;DHT22;48140;45.486;9.226;2024-01-30T09:21:22;6.50;98.40
62154;DHT22;48140;45.486;9.226;2024-01-30T09:23:48;6.80;97.50
62154;DHT22;48140;45.486;9.226;2024-01-30T09:26:13;7.00;96.90
62154;DHT22;48140;45.486;9.226;2024-01-30T09:28:39;7.30;96.50
62154;DHT22;48140;45.486;9.226;2024-01-30T09:31:09;7.40;94.40
62154;DHT22;48140;45.486;9.226;2024-01-30T09:33:34;7.80;93.30
62154;DHT22;48140;45.486;9.226;2024-01-30T09:36:00;7.90;92.20
62154;DHT22;48140;45.486;9.226;2024-01-30T09:38:25;7.80;91.60
62154;DHT22;48140;45.486;9.226;2024-01-30T09:40:53;8.10;91.10
62154;DHT22;48140;45.486;9.226;2024-01-30T09:43:19;8.10;91.10
62154;DHT22;48140;45.486;9.226;2024-01-30T09:45:48;8.00;90.20
62154;DHT22;48140;45.486;9.226;2024-01-30T09:48:14;7.80;90.40
62154;DHT22;48140;45.486;9.226;2024-01-30T09:50:40;7.60;90.90
62154;DHT22;48140;45.486;9.226;2024-01-30T09:53:06;7.70;90.90
62154;DHT22;48140;45.486;9.226;2024-01-30T09:55:33;7.70;90.60
62154;DHT22;48140;45.486;9.226;2024-01-30T09:57:58;7.80;90.60
62154;DHT22;48140;45.486;9.226;2024-01-30T10:00:24;8.30;89.00
62154;DHT22;48140;45.486;9.226;2024-01-30T10:02:52;8.50;87.70
62154;DHT22;48140;45.486;9.226;2024-01-30T10:05:19;9.00;84.90
62154;DHT22;48140;45.486;9.226;2024-01-30T10:07:54;9.40;84.60
62154;DHT22;48140;45.486;9.226;2024-01-30T10:10:22;9.90;77.40
62154;DHT22;48140;45.486;9.226;2024-01-30T10:12:49;9.80;77.50
62154;DHT22;48140;45.486;9.226;2024-01-30T10:15:14;9.90;76.80
62154;DHT22;48140;45.486;9.226;2024-01-30T10:17:40;9.80;76.80
62154;DHT22;48140;45.486;9.226;2024-01-30T10:20:05;10.50;74.10
62154;DHT22;48140;45.486;9.226;2024-01-30T10:22:31;10.40;72.40
62154;DHT22;48140;45.486;9.226;2024-01-30T10:24:57;10.90;72.10
62154;DHT22;48140;45.486;9.226;2024-01-30T10:27:26;11.20;69.10
62154;DHT22;48140;45.486;9.226;2024-01-30T10:29:52;11.40;67.70
62154;DHT22;48140;45.486;9.226;2024-01-30T10:32:19;12.00;65.00
62154;DHT22;48140;45.486;9.226;2024-01-30T10:34:45;11.90;65.20
62154;DHT22;48140;45.486;9.226;2024-01-30T10:37:10;12.10;63.80
62154;DHT22;48140;45.486;9.226;2024-01-30T10:39:42;12.50;60.90
62154;DHT22;48140;45.486;9.226;2024-01-30T10:42:18;12.60;59.50
62154;DHT22;48140;45.486;9.226;2024-01-30T10:47:15;12.70;57.70
62154;DHT22;48140;45.486;9.226;2024-01-30T10:49:43;12.40;58.20
62154;DHT22;48140;45.486;9.226;2024-01-30T10:52:11;12.90;57.70
62154;DHT22;48140;45.486;9.226;2024-01-30T10:54:39;13.10;56.50
62154;DHT22;48140;45.486;9.226;2024-01-30T10:57:05;12.80;56.30
62154;DHT22;48140;45.486;9.226;2024-01-30T10:59:31;13.80;56.30
62154;DHT22;48140;45.486;9.226;2024-01-30T11:01:57;13.40;57.80
62154;DHT22;48140;45.486;9.226;2024-01-30T11:04:24;13.40;58.00
62154;DHT22;48140;45.486;9.226;2024-01-30T11:06:50;13.80;56.90
62154;DHT22;48140;45.486;9.226;2024-01-30T11:09:17;13.40;55.50
62154;DHT22;48140;45.486;9.226;2024-01-30T11:11:52;13.70;54.10
62154;DHT22;48140;45.486;9.226;2024-01-30T11:14:23;13.40;54.90
62154;DHT22;48140;45.486;9.226;2024-01-30T11:16:49;13.30;55.50
62154;DHT22;48140;45.486;9.226;2024-01-30T11:19:14;13.60;56.50
62154;DHT22;48140;45.486;9.226;2024-01-30T11:21:41;14.00;56.00
62154;DHT22;48140;45.486;9.226;2024-01-30T11:24:07;13.90;56.50
62154;DHT22;48140;45.486;9.226;2024-01-30T11:26:33;14.00;55.80
62154;DHT22;48140;45.486;9.226;2024-01-30T11:28:58;14.30;55.80
62154;DHT22;48140;45.486;9.226;2024-01-30T11:31:24;14.50;54.90
62154;DHT22;48140;45.486;9.226;2024-01-30T11:33:52;14.10;55.20
62154;DHT22;48140;45.486;9.226;2024-01-30T11:36:18;13.90;55.70
62154;DHT22;48140;45.486;9.226;2024-01-30T11:38:46;14.20;54.50
62154;DHT22;48140;45.486;9.226;2024-01-30T11:41:12;14.10;55.10
62154;DHT22;48140;45.486;9.226;2024-01-30T11:43:39;14.30;53.60
62154;DHT22;48140;45.486;9.226;2024-01-30T11:46:05;14.50;50.60
62154;DHT22;48140;45.486;9.226;2024-01-30T11:48:32;14.90;50.50
62154;DHT22;48140;45.486;9.226;2024-01-30T11:50:57;14.60;49.60
62154;DHT22;48140;45.486;9.226;2024-01-30T11:53:23;14.40;51.60
62154;DHT22;48140;45.486;9.226;2024-01-30T11:55:51;14.10;52.50
62154;DHT22;48140;45.486;9.226;2024-01-30T11:58:17;14.20;52.80
62154;DHT22;48140;45.486;9.226;2024-01-30T12:00:42;14.00;53.90
62154;DHT22;48140;45.486;9.226;2024-01-30T12:03:09;14.00;54.90
62154;DHT22;48140;45.486;9.226;2024-01-30T12:05:36;13.90;55.40
62154;DHT22;48140;45.486;9.226;2024-01-30T12:08:08;14.10;54.70
62154;DHT22;48140;45.486;9.226;2024-01-30T12:10:39;14.70;54.10
62154;DHT22;48140;45.486;9.226;2024-01-30T12:13:04;14.80;52.80
62154;DHT22;48140;45.486;9.226;2024-01-30T12:15:30;15.00;52.70
62154;DHT22;48140;45.486;9.226;2024-01-30T12:18:05;15.80;48.00
62154;DHT22;48140;45.486;9.226;2024-01-30T12:20:31;15.50;47.30
62154;DHT22;48140;45.486;9.226;2024-01-30T12:22:56;16.60;45.10
62154;DHT22;48140;45.486;9.226;2024-01-30T12:25:22;15.90;45.30
62154;DHT22;48140;45.486;9.226;2024-01-30T12:27:52;15.70;47.00
62154;DHT22;48140;45.486;9.226;2024-01-30T12:30:18;15.30;45.30
62154;DHT22;48140;45.486;9.226;2024-01-30T12:32:44;15.10;46.20
62154;DHT22;48140;45.486;9.226;2024-01-30T12:35:10;14.70;46.70
62154;DHT22;48140;45.486;9.226;2024-01-30T12:37:36;14.30;47.60
62154;DHT22;48140;45.486;9.226;2024-01-30T12:40:01;14.00;48.40
62154;DHT22;48140;45.486;9.226;2024-01-30T12:42:27;13.70;50.00
62154;DHT22;48140;45.486;9.226;2024-01-30T12:44:53;13.50;50.20
62154;DHT22;48140;45.486;9.226;2024-01-30T12:47:18;13.90;50.00
62154;DHT22;48140;45.486;9.226;2024-01-30T12:49:46;14.50;48.60
62154;DHT22;48140;45.486;9.226;2024-01-30T12:52:12;15.10;48.10
62154;DHT22;48140;45.486;9.226;2024-01-30T12:54:38;15.70;46.70
62154;DHT22;48140;45.486;9.226;2024-01-30T12:57:04;16.00;44.70
62154;DHT22;48140;45.486;9.226;2024-01-30T12:59:30;15.50;44.40
62154;DHT22;48140;45.486;9.226;2024-01-30T13:01:55;15.10;46.00
62154;DHT22;48140;45.486;9.226;2024-01-30T13:04:21;14.80;47.20
62154;DHT22;48140;45.486;9.226;2024-01-30T13:06:47;14.40;48.50
62154;DHT22;48140;45.486;9.226;2024-01-30T13:09:13;14.30;48.90
62154;DHT22;48140;45.486;9.226;2024-01-30T13:11:38;13.80;48.80
62154;DHT22;48140;45.486;9.226;2024-01-30T13:14:04;14.20;48.80
62154;DHT22;48140;45.486;9.226;2024-01-30T13:16:29;15.20;46.50
62154;DHT22;48140;45.486;9.226;2024-01-30T13:18:55;16.10;44.50
62154;DHT22;48140;45.486;9.226;2024-01-30T13:21:21;16.60;42.60
62154;DHT22;48140;45.486;9.226;2024-01-30T13:23:46;17.60;39.80
62154;DHT22;48140;45.486;9.226;2024-01-30T13:26:12;16.80;41.30
62154;DHT22;48140;45.486;9.226;2024-01-30T13:28:37;16.50;40.90
62154;DHT22;48140;45.486;9.226;2024-01-30T13:31:03;16.30;40.40
62154;DHT22;48140;45.486;9.226;2024-01-30T13:33:30;16.10;41.00
62154;DHT22;48140;45.486;9.226;2024-01-30T13:35:56;16.60;40.40
62154;DHT22;48140;45.486;9.226;2024-01-30T13:38:21;17.10;39.90
62154;DHT22;48140;45.486;9.226;2024-01-30T13:40:47;17.00;40.90
62154;DHT22;48140;45.486;9.226;2024-01-30T13:43:12;17.10;42.20
62154;DHT22;48140;45.486;9.226;2024-01-30T13:45:38;17.20;42.20
62154;DHT22;48140;45.486;9.226;2024-01-30T13:48:03;16.30;43.10
62154;DHT22;48140;45.486;9.226;2024-01-30T13:50:29;16.40;44.20
62154;DHT22;48140;45.486;9.226;2024-01-30T13:52:54;16.70;45.00
62154;DHT22;48140;45.486;9.226;2024-01-30T13:55:20;16.20;45.60
62154;DHT22;48140;45.486;9.226;2024-01-30T13:57:46;15.90;46.60
62154;DHT22;48140;45.486;9.226;2024-01-30T14:00:11;15.00;50.00
62154;DHT22;48140;45.486;9.226;2024-01-30T14:02:37;16.10;46.80
62154;DHT22;48140;45.486;9.226;2024-01-30T14:05:04;16.40;46.10
62154;DHT22;48140;45.486;9.226;2024-01-30T14:07:30;17.30;44.30
62154;DHT22;48140;45.486;9.226;2024-01-30T14:09:55;17.50;43.10
62154;DHT22;48140;45.486;9.226;2024-01-30T14:12:21;17.20;43.80
62154;DHT22;48140;45.486;9.226;2024-01-30T14:14:47;17.40;43.30
62154;DHT22;48140;45.486;9.226;2024-01-30T14:17:12;17.60;42.20
62154;DHT22;48140;45.486;9.226;2024-01-30T14:19:38;18.30;40.80
62154;DHT22;48140;45.486;9.226;2024-01-30T14:22:03;18.10;40.80
62154;DHT22;48140;45.486;9.226;2024-01-30T14:24:29;17.40;42.30
62154;DHT22;48140;45.486;9.226;2024-01-30T14:26:55;17.40;42.20
62154;DHT22;48140;45.486;9.226;2024-01-30T14:29:20;17.60;42.10
62154;DHT22;48140;45.486;9.226;2024-01-30T14:31:46;16.90;43.70
62154;DHT22;48140;45.486;9.226;2024-01-30T14:34:11;17.10;43.60
62154;DHT22;48140;45.486;9.226;2024-01-30T14:36:38;17.30;42.60
62154;DHT22;48140;45.486;9.226;2024-01-30T14:39:03;17.30;42.60
62154;DHT22;48140;45.486;9.226;2024-01-30T14:41:29;17.30;42.00
62154;DHT22;48140;45.486;9.226;2024-01-30T14:43:55;17.00;43.20
62154;DHT22;48140;45.486;9.226;2024-01-30T14:46:21;16.20;44.80
62154;DHT22;48140;45.486;9.226;2024-01-30T14:48:47;15.80;45.80
62154;DHT22;48140;45.486;9.226;2024-01-30T14:51:12;16.40;45.60
62154;DHT22;48140;45.486;9.226;2024-01-30T14:53:40;16.20;46.30
62154;DHT22;48140;45.486;9.226;2024-01-30T14:56:06;16.70;45.80
62154;DHT22;48140;45.486;9.226;2024-01-30T14:58:31;16.20;45.60
62154;DHT22;48140;45.486;9.226;2024-01-30T15:00:58;16.10;45.90
62154;DHT22;48140;45.486;9.226;2024-01-30T15:03:24;15.70;47.40
62154;DHT22;48140;45.486;9.226;2024-01-30T15:05:49;14.70;48.80
62154;DHT22;48140;45.486;9.226;2024-01-30T15:08:15;14.50;50.20
62154;DHT22;48140;45.486;9.226;2024-01-30T15:10:40;14.10;51.70
62154;DHT22;48140;45.486;9.226;2024-01-30T15:13:08;14.30;50.90
62154;DHT22;48140;45.486;9.226;2024-01-30T15:15:34;14.00;51.50
62154;DHT22;48140;45.486;9.226;2024-01-30T15:17:59;13.90;52.00
62154;DHT22;48140;45.486;9.226;2024-01-30T15:20:25;14.30;51.70
62154;DHT22;48140;45.486;9.226;2024-01-30T15:22:50;14.60;49.80
62154;DHT22;48140;45.486;9.226;2024-01-30T15:25:16;14.80;48.80
62154;DHT22;48140;45.486;9.226;2024-01-30T15:27:41;15.30;47.20
62154;DHT22;48140;45.486;9.226;2024-01-30T15:30:07;15.00;47.20
62154;DHT22;48140;45.486;9.226;2024-01-30T15:32:33;14.70;47.60
62154;DHT22;48140;45.486;9.226;2024-01-30T15:35:00;14.80;47.20